createdAt,value
2017-11-23T00:00:12.349Z,73.94
2017-11-23T00:01:12.343Z,74.04
2017-11-23T00:02:12.339Z,74.13
2017-11-23T00:03:12.334Z,73.85
2017-11-23T00:04:12.322Z,74.10
2017-11-23T00:05:12.316Z,74.04
2017-11-23T00:06:12.313Z,73.91
2017-11-23T00:07:12.306Z,74.01
2017-11-23T00:08:12.299Z,74.13
2017-11-23T00:09:12.293Z,73.85
2017-11-23T00:10:12.292Z,74.23
2017-11-23T00:11:12.283Z,73.85
2017-11-23T00:12:12.281Z,73.47
2017-11-23T00:13:12.274Z,74.04
2017-11-23T00:14:12.270Z,73.56
2017-11-23T00:15:12.264Z,73.37
2017-11-23T00:16:12.258Z,73.47
2017-11-23T00:17:12.252Z,73.85
2017-11-23T00:18:12.246Z,73.66
2017-11-23T00:19:12.240Z,73.47
2017-11-23T00:20:12.230Z,73.94
2017-11-23T00:21:12.225Z,74.04
2017-11-23T00:22:12.220Z,74.04
2017-11-23T00:23:12.215Z,73.91
2017-11-23T00:24:12.208Z,74.01
2017-11-23T00:25:12.202Z,73.94
2017-11-23T00:26:12.196Z,73.94
2017-11-23T00:27:12.190Z,73.56
2017-11-23T00:28:12.187Z,73.85
2017-11-23T00:29:12.189Z,73.85
2017-11-23T00:30:12.177Z,73.66
2017-11-23T00:31:12.172Z,73.47
2017-11-23T00:32:12.173Z,74.13
2017-11-23T00:33:12.160Z,73.81
2017-11-23T00:34:12.153Z,73.94
2017-11-23T00:35:12.149Z,73.72
2017-11-23T00:36:12.136Z,74.04
2017-11-23T00:37:12.133Z,74.04
2017-11-23T00:38:12.125Z,74.04
2017-11-23T00:39:12.121Z,73.81
2017-11-23T00:40:12.122Z,74.42
2017-11-23T00:41:12.113Z,74.42
2017-11-23T00:42:12.107Z,74.42
2017-11-23T00:43:12.102Z,74.10
2017-11-23T00:44:12.092Z,73.81
2017-11-23T00:45:12.086Z,74.19
2017-11-23T00:46:12.081Z,74.01
2017-11-23T00:47:12.074Z,73.91
2017-11-23T00:48:12.069Z,74.42
2017-11-23T00:49:12.062Z,74.01
2017-11-23T00:50:12.059Z,74.57
2017-11-23T00:51:12.051Z,74.48
2017-11-23T00:52:12.049Z,74.67
2017-11-23T00:53:12.044Z,74.38
2017-11-23T00:54:12.037Z,74.57
2017-11-23T00:55:12.033Z,74.86
2017-11-23T00:56:12.027Z,74.86
2017-11-23T00:57:12.021Z,75.15
2017-11-23T00:58:12.014Z,74.77
2017-11-23T00:59:12.010Z,74.96
2017-11-23T01:00:11.999Z,74.77
2017-11-23T01:01:11.993Z,75.15
2017-11-23T01:02:11.988Z,74.86
2017-11-23T01:03:11.982Z,75.43
2017-11-23T01:04:11.975Z,75.53
2017-11-23T01:05:11.971Z,75.62
2017-11-23T01:06:11.963Z,75.24
2017-11-23T01:07:11.960Z,75.81
2017-11-23T01:08:11.956Z,76.01
2017-11-23T01:09:11.950Z,75.91
2017-11-23T01:10:11.946Z,75.34
2017-11-23T01:11:11.939Z,75.62
2017-11-23T01:12:11.933Z,75.53
2017-11-23T01:13:11.928Z,75.43
2017-11-23T01:14:11.922Z,75.91
2017-11-23T01:15:11.917Z,75.62
2017-11-23T01:16:11.907Z,75.53
2017-11-23T01:17:11.901Z,75.24
2017-11-23T01:18:11.896Z,75.72
2017-11-23T01:19:11.889Z,75.24
2017-11-23T01:20:11.883Z,75.43
2017-11-23T01:21:11.877Z,75.43
2017-11-23T01:22:11.871Z,75.43
2017-11-23T01:23:11.865Z,75.43
2017-11-23T01:24:11.865Z,75.72
2017-11-23T01:25:11.857Z,75.43
2017-11-23T01:26:11.852Z,75.43
2017-11-23T01:27:11.846Z,75.43
2017-11-23T01:28:11.840Z,75.72
2017-11-23T01:29:11.835Z,75.91
2017-11-23T01:30:11.829Z,75.43
2017-11-23T01:31:11.823Z,75.53
2017-11-23T01:32:11.814Z,75.91
2017-11-23T01:33:11.807Z,76.20
2017-11-23T01:34:11.801Z,76.48
2017-11-23T01:35:11.799Z,76.29
2017-11-23T01:36:11.790Z,76.20
2017-11-23T01:37:11.784Z,76.29
2017-11-23T01:38:11.779Z,75.81
2017-11-23T01:39:11.772Z,75.72
2017-11-23T01:40:11.769Z,76.39
2017-11-23T01:41:11.765Z,75.81
2017-11-23T01:42:11.758Z,76.20
2017-11-23T01:43:11.754Z,76.01
2017-11-23T01:44:11.749Z,76.01
2017-11-23T01:45:11.741Z,76.10
2017-11-23T01:46:11.740Z,76.48
2017-11-23T01:47:11.739Z,76.10
2017-11-23T01:48:11.718Z,76.01
2017-11-23T01:49:11.714Z,75.91
2017-11-23T01:50:11.707Z,76.20
2017-11-23T01:51:11.702Z,76.10
2017-11-23T01:52:11.696Z,76.10
2017-11-23T01:53:11.689Z,76.48
2017-11-23T01:54:11.686Z,76.10
2017-11-23T01:55:11.678Z,76.39
2017-11-23T01:56:11.675Z,76.48
2017-11-23T01:57:11.670Z,76.39
2017-11-23T01:58:11.665Z,76.48
2017-11-23T01:59:11.660Z,76.48
2017-11-23T02:00:11.654Z,76.01
2017-11-23T02:01:11.647Z,76.20
2017-11-23T02:02:11.641Z,76.29
2017-11-23T02:03:11.636Z,76.01
2017-11-23T02:04:11.625Z,76.01
2017-11-23T02:05:11.618Z,75.91
2017-11-23T02:06:11.617Z,76.01
2017-11-23T02:07:11.608Z,76.10
2017-11-23T02:08:11.602Z,76.01
2017-11-23T02:09:11.595Z,76.01
2017-11-23T02:10:11.589Z,76.67
2017-11-23T02:11:11.585Z,76.57
2017-11-23T02:12:11.583Z,76.29
2017-11-23T02:13:11.576Z,76.77
2017-11-23T02:14:11.571Z,76.86
2017-11-23T02:15:11.565Z,76.39
2017-11-23T02:16:11.559Z,76.96
2017-11-23T02:17:11.554Z,76.39
2017-11-23T02:18:11.548Z,76.14
2017-11-23T02:19:11.543Z,75.81
2017-11-23T02:20:11.532Z,76.10
2017-11-23T02:21:11.525Z,76.20
2017-11-23T02:22:11.519Z,75.91
2017-11-23T02:23:11.515Z,75.81
2017-11-23T02:24:11.508Z,75.91
2017-11-23T02:25:11.504Z,75.81
2017-11-23T02:26:11.496Z,75.85
2017-11-23T02:27:11.490Z,76.10
2017-11-23T02:28:11.489Z,76.29
2017-11-23T02:29:11.484Z,76.29
2017-11-23T02:30:11.478Z,76.39
2017-11-23T02:31:11.505Z,76.57
2017-11-23T02:32:11.467Z,76.48
2017-11-23T02:33:11.460Z,76.48
2017-11-23T02:34:11.455Z,76.57
2017-11-23T02:35:11.450Z,76.57
2017-11-23T02:36:11.438Z,76.67
2017-11-23T02:37:11.433Z,76.86
2017-11-23T02:38:11.427Z,76.20
2017-11-23T02:39:11.423Z,76.57
2017-11-23T02:40:11.415Z,76.57
2017-11-23T02:41:11.411Z,76.29
2017-11-23T02:42:11.427Z,76.67
2017-11-23T02:43:11.399Z,76.67
2017-11-23T02:44:11.395Z,76.71
2017-11-23T02:45:11.393Z,76.57
2017-11-23T02:46:11.385Z,76.39
2017-11-23T02:47:11.384Z,76.62
2017-11-23T02:48:11.370Z,76.48
2017-11-23T02:49:11.365Z,76.67
2017-11-23T02:50:11.357Z,76.67
2017-11-23T02:51:11.351Z,76.39
2017-11-23T02:52:11.348Z,76.77
2017-11-23T02:53:11.344Z,76.48
2017-11-23T02:54:11.340Z,76.67
2017-11-23T02:55:11.335Z,76.96
2017-11-23T02:56:11.332Z,76.57
2017-11-23T02:57:11.329Z,76.57
2017-11-23T02:58:11.315Z,77.15
2017-11-23T02:59:11.311Z,77.15
2017-11-23T03:00:11.307Z,76.96
2017-11-23T03:01:11.294Z,76.96
2017-11-23T03:02:11.291Z,76.96
2017-11-23T03:03:11.283Z,77.34
2017-11-23T03:04:11.276Z,77.28
2017-11-23T03:05:11.270Z,77.06
2017-11-23T03:06:11.265Z,77.19
2017-11-23T03:07:11.260Z,76.96
2017-11-23T03:08:11.257Z,76.81
2017-11-23T03:09:11.251Z,76.77
2017-11-23T03:10:11.248Z,77.25
2017-11-23T03:11:11.240Z,77.15
2017-11-23T03:12:11.235Z,77.34
2017-11-23T03:13:11.228Z,77.34
2017-11-23T03:14:11.222Z,77.44
2017-11-23T03:15:11.227Z,77.72
2017-11-23T03:16:11.205Z,77.62
2017-11-23T03:17:11.200Z,77.15
2017-11-23T03:18:11.195Z,77.34
2017-11-23T03:19:11.189Z,77.34
2017-11-23T03:20:11.182Z,77.67
2017-11-23T03:21:11.178Z,77.47
2017-11-23T03:22:11.172Z,77.25
2017-11-23T03:23:11.168Z,77.57
2017-11-23T03:24:11.163Z,77.57
2017-11-23T03:25:11.158Z,77.53
2017-11-23T03:26:11.153Z,77.72
2017-11-23T03:27:11.149Z,77.44
2017-11-23T03:28:11.140Z,77.34
2017-11-23T03:29:11.136Z,77.34
2017-11-23T03:30:11.131Z,77.62
2017-11-23T03:31:11.127Z,77.57
2017-11-23T03:32:11.114Z,77.38
2017-11-23T03:33:11.107Z,77.67
2017-11-23T03:34:11.101Z,77.53
2017-11-23T03:35:11.098Z,77.95
2017-11-23T03:36:11.091Z,77.57
2017-11-23T03:37:11.084Z,77.57
2017-11-23T03:38:11.081Z,77.38
2017-11-23T03:39:11.074Z,77.38
2017-11-23T03:40:11.073Z,77.47
2017-11-23T03:41:11.066Z,77.38
2017-11-23T03:42:11.060Z,77.28
2017-11-23T03:43:11.056Z,77.38
2017-11-23T03:44:11.048Z,77.76
2017-11-23T03:45:11.044Z,77.57
2017-11-23T03:46:11.037Z,77.57
2017-11-23T03:47:11.032Z,77.44
2017-11-23T03:48:11.023Z,77.38
2017-11-23T03:49:11.017Z,77.62
2017-11-23T03:50:11.009Z,77.53
2017-11-23T03:51:11.005Z,77.67
2017-11-23T03:52:11.001Z,77.57
2017-11-23T03:53:10.997Z,77.76
2017-11-23T03:54:10.990Z,77.67
2017-11-23T03:55:10.986Z,77.86
2017-11-23T03:56:10.983Z,77.76
2017-11-23T03:57:10.968Z,77.86
2017-11-23T03:58:10.964Z,77.91
2017-11-23T03:59:10.958Z,77.95
2017-11-23T04:00:10.952Z,78.01
2017-11-23T04:01:10.948Z,78.05
2017-11-23T04:02:10.940Z,78.72
2017-11-23T04:03:10.936Z,78.49
2017-11-23T04:04:10.936Z,78.23
2017-11-23T04:05:10.928Z,78.23
2017-11-23T04:06:10.923Z,78.14
2017-11-23T04:07:10.917Z,78.14
2017-11-23T04:08:10.911Z,78.10
2017-11-23T04:09:10.905Z,78.33
2017-11-23T04:10:10.900Z,78.96
2017-11-23T04:11:10.894Z,78.49
2017-11-23T04:12:10.883Z,78.30
2017-11-23T04:13:10.884Z,78.62
2017-11-23T04:14:10.873Z,78.72
2017-11-23T04:15:10.868Z,78.72
2017-11-23T04:16:10.861Z,78.43
2017-11-23T04:17:10.855Z,78.62
2017-11-23T04:18:10.858Z,78.43
2017-11-23T04:19:10.849Z,78.43
2017-11-23T04:20:10.843Z,79.10
2017-11-23T04:21:10.837Z,78.52
2017-11-23T04:22:10.833Z,78.72
2017-11-23T04:23:10.826Z,78.43
2017-11-23T04:24:10.823Z,79.10
2017-11-23T04:25:10.813Z,78.62
2017-11-23T04:26:10.809Z,79.10
2017-11-23T04:27:10.803Z,78.81
2017-11-23T04:28:10.791Z,78.91
2017-11-23T04:29:10.789Z,79.00
2017-11-23T04:30:10.781Z,78.43
2017-11-23T04:31:10.779Z,78.52
2017-11-23T04:32:10.772Z,78.52
2017-11-23T04:33:10.766Z,78.72
2017-11-23T04:34:10.759Z,78.72
2017-11-23T04:35:10.754Z,78.52
2017-11-23T04:36:10.750Z,78.91
2017-11-23T04:37:10.747Z,78.23
2017-11-23T04:38:10.747Z,78.14
2017-11-23T04:39:10.736Z,78.81
2017-11-23T04:40:10.730Z,79.00
2017-11-23T04:41:10.724Z,79.00
2017-11-23T04:42:10.719Z,78.33
2017-11-23T04:43:10.714Z,78.14
2017-11-23T04:44:10.704Z,78.14
2017-11-23T04:45:10.699Z,78.14
2017-11-23T04:46:10.691Z,78.14
2017-11-23T04:47:10.687Z,78.43
2017-11-23T04:48:10.683Z,78.72
2017-11-23T04:49:10.676Z,78.81
2017-11-23T04:50:10.669Z,78.62
2017-11-23T04:51:10.664Z,78.91
2017-11-23T04:52:10.663Z,79.00
2017-11-23T04:53:10.658Z,78.52
2017-11-23T04:54:10.652Z,78.14
2017-11-23T04:55:10.646Z,78.14
2017-11-23T04:56:10.636Z,78.14
2017-11-23T04:57:10.632Z,78.43
2017-11-23T04:58:10.625Z,78.43
2017-11-23T04:59:10.621Z,78.23
2017-11-23T05:00:10.621Z,78.33
2017-11-23T05:01:10.614Z,78.23
2017-11-23T05:02:10.609Z,78.23
2017-11-23T05:03:10.603Z,78.33
2017-11-23T05:04:10.596Z,78.43
2017-11-23T05:05:10.599Z,78.62
2017-11-23T05:06:10.587Z,78.52
2017-11-23T05:07:10.583Z,78.62
2017-11-23T05:08:10.570Z,78.66
2017-11-23T05:09:10.566Z,78.43
2017-11-23T05:10:10.561Z,78.56
2017-11-23T05:11:10.556Z,78.62
2017-11-23T05:12:10.549Z,78.56
2017-11-23T05:13:10.545Z,78.66
2017-11-23T05:14:10.537Z,78.33
2017-11-23T05:15:10.534Z,78.28
2017-11-23T05:16:10.536Z,78.18
2017-11-23T05:17:10.530Z,78.23
2017-11-23T05:18:10.521Z,78.33
2017-11-23T05:19:10.517Z,78.14
2017-11-23T05:20:10.510Z,78.14
2017-11-23T05:21:10.506Z,78.33
2017-11-23T05:22:10.501Z,78.43
2017-11-23T05:23:10.496Z,78.85
2017-11-23T05:24:10.484Z,78.09
2017-11-23T05:25:10.481Z,78.37
2017-11-23T05:26:10.476Z,78.47
2017-11-23T05:27:10.472Z,78.56
2017-11-23T05:28:10.478Z,78.37
2017-11-23T05:29:10.458Z,78.28
2017-11-23T05:30:10.455Z,78.47
2017-11-23T05:31:10.450Z,78.28
2017-11-23T05:32:10.447Z,78.66
2017-11-23T05:33:10.443Z,78.56
2017-11-23T05:34:10.437Z,78.66
2017-11-23T05:35:10.434Z,78.66
2017-11-23T05:36:10.427Z,78.66
2017-11-23T05:37:10.420Z,78.66
2017-11-23T05:38:10.416Z,78.56
2017-11-23T05:39:10.410Z,78.37
2017-11-23T05:40:10.400Z,78.56
2017-11-23T05:41:10.396Z,78.28
2017-11-23T05:42:10.391Z,78.66
2017-11-23T05:43:10.388Z,78.37
2017-11-23T05:44:10.379Z,78.18
2017-11-23T05:45:10.375Z,78.18
2017-11-23T05:46:10.370Z,78.75
2017-11-23T05:47:10.365Z,78.56
2017-11-23T05:48:10.363Z,78.28
2017-11-23T05:49:10.357Z,78.18
2017-11-23T05:50:10.353Z,78.28
2017-11-23T05:51:10.349Z,78.18
2017-11-23T05:52:10.341Z,78.28
2017-11-23T05:53:10.336Z,78.18
2017-11-23T05:54:10.332Z,78.28
2017-11-23T05:55:10.326Z,78.85
2017-11-23T05:56:10.318Z,78.66
2017-11-23T05:57:10.311Z,78.37
2017-11-23T05:58:10.306Z,78.75
2017-11-23T05:59:10.301Z,78.85
2017-11-23T06:00:10.299Z,78.66
2017-11-23T06:01:10.294Z,78.75
2017-11-23T06:02:10.288Z,78.37
2017-11-23T06:03:10.284Z,78.94
2017-11-23T06:04:10.272Z,78.85
2017-11-23T06:05:10.268Z,78.75
2017-11-23T06:06:10.268Z,78.56
2017-11-23T06:07:10.257Z,78.37
2017-11-23T06:08:10.252Z,78.85
2017-11-23T06:09:10.263Z,78.37
2017-11-23T06:10:10.241Z,78.47
2017-11-23T06:11:10.238Z,78.75
2017-11-23T06:12:10.240Z,78.75
2017-11-23T06:13:10.231Z,78.56
2017-11-23T06:14:10.237Z,78.56
2017-11-23T06:15:10.224Z,79.04
2017-11-23T06:16:10.214Z,79.04
2017-11-23T06:17:10.211Z,78.56
2017-11-23T06:18:10.204Z,78.75
2017-11-23T06:19:10.199Z,78.37
2017-11-23T06:20:10.189Z,79.04
2017-11-23T06:21:10.185Z,78.28
2017-11-23T06:22:10.180Z,78.18
2017-11-23T06:23:10.175Z,78.28
2017-11-23T06:24:10.170Z,78.28
2017-11-23T06:25:10.163Z,78.28
2017-11-23T06:26:10.159Z,78.18
2017-11-23T06:27:10.155Z,78.28
2017-11-23T06:28:10.152Z,78.31
2017-11-23T06:29:10.148Z,78.41
2017-11-23T06:30:10.146Z,78.22
2017-11-23T06:31:10.140Z,78.51
2017-11-23T06:32:10.133Z,78.31
2017-11-23T06:33:10.128Z,78.41
2017-11-23T06:34:10.130Z,78.28
2017-11-23T06:35:10.118Z,78.31
2017-11-23T06:36:10.108Z,78.60
2017-11-23T06:37:10.103Z,78.41
2017-11-23T06:38:10.098Z,78.70
2017-11-23T06:39:10.095Z,78.70
2017-11-23T06:40:10.087Z,78.60
2017-11-23T06:41:10.086Z,78.60
2017-11-23T06:42:10.081Z,78.60
2017-11-23T06:43:10.074Z,78.60
2017-11-23T06:44:10.072Z,78.31
2017-11-23T06:45:10.075Z,78.31
2017-11-23T06:46:10.062Z,78.22
2017-11-23T06:47:10.059Z,78.51
2017-11-23T06:48:10.057Z,78.41
2017-11-23T06:49:10.049Z,78.99
2017-11-23T06:50:10.043Z,78.60
2017-11-23T06:51:10.039Z,78.70
2017-11-23T06:52:10.036Z,78.99
2017-11-23T06:53:10.024Z,78.79
2017-11-23T06:54:10.021Z,78.89
2017-11-23T06:55:10.015Z,78.51
2017-11-23T06:56:10.011Z,78.99
2017-11-23T06:57:10.012Z,79.27
2017-11-23T06:58:10.000Z,79.08
2017-11-23T06:59:09.996Z,78.70
2017-11-23T07:00:09.994Z,79.08
2017-11-23T07:01:09.989Z,78.70
2017-11-23T07:02:09.984Z,78.70
2017-11-23T07:03:09.980Z,78.89
2017-11-23T07:04:09.971Z,79.17
2017-11-23T07:05:09.966Z,79.08
2017-11-23T07:06:09.961Z,79.08
2017-11-23T07:07:09.955Z,78.99
2017-11-23T07:08:09.955Z,78.89
2017-11-23T07:09:09.949Z,78.79
2017-11-23T07:10:09.945Z,78.89
2017-11-23T07:11:09.942Z,78.99
2017-11-23T07:12:09.936Z,79.27
2017-11-23T07:13:09.931Z,79.27
2017-11-23T07:14:09.926Z,79.46
2017-11-23T07:15:09.921Z,79.36
2017-11-23T07:16:09.912Z,79.08
2017-11-23T07:17:09.907Z,79.27
2017-11-23T07:18:09.903Z,79.85
2017-11-23T07:19:09.897Z,79.56
2017-11-23T07:20:09.892Z,79.36
2017-11-23T07:21:09.887Z,79.56
2017-11-23T07:22:09.883Z,80.13
2017-11-23T07:23:09.883Z,79.46
2017-11-23T07:24:09.877Z,79.75
2017-11-23T07:25:09.873Z,79.75
2017-11-23T07:26:09.867Z,79.85
2017-11-23T07:27:09.865Z,80.04
2017-11-23T07:28:09.857Z,79.46
2017-11-23T07:29:09.853Z,79.56
2017-11-23T07:30:09.852Z,79.65
2017-11-23T07:31:09.844Z,79.56
2017-11-23T07:32:09.834Z,79.27
2017-11-23T07:33:09.837Z,79.75
2017-11-23T07:34:09.826Z,79.36
2017-11-23T07:35:09.821Z,79.65
2017-11-23T07:36:09.823Z,79.75
2017-11-23T07:37:09.811Z,79.94
2017-11-23T07:38:09.807Z,79.65
2017-11-23T07:39:09.801Z,79.75
2017-11-23T07:40:09.802Z,79.56
2017-11-23T07:41:09.795Z,79.56
2017-11-23T07:42:09.792Z,79.85
2017-11-23T07:43:09.788Z,79.27
2017-11-23T07:44:09.784Z,79.46
2017-11-23T07:45:09.777Z,79.85
2017-11-23T07:46:09.772Z,79.94
2017-11-23T07:47:09.768Z,80.13
2017-11-23T07:48:09.758Z,80.32
2017-11-23T07:49:09.753Z,79.75
2017-11-23T07:50:09.748Z,79.75
2017-11-23T07:51:09.745Z,79.75
2017-11-23T07:52:09.739Z,79.85
2017-11-23T07:53:09.735Z,80.32
2017-11-23T07:54:09.730Z,80.51
2017-11-23T07:55:09.726Z,80.13
2017-11-23T07:56:09.724Z,80.51
2017-11-23T07:57:09.719Z,80.61
2017-11-23T07:58:09.716Z,80.32
2017-11-23T07:59:09.712Z,80.99
2017-11-23T08:00:09.705Z,80.61
2017-11-23T08:01:09.702Z,80.80
2017-11-23T08:02:09.695Z,80.32
2017-11-23T08:03:09.691Z,81.09
2017-11-23T08:04:09.682Z,80.99
2017-11-23T08:05:09.678Z,80.80
2017-11-23T08:06:09.672Z,80.99
2017-11-23T08:07:09.669Z,80.41
2017-11-23T08:08:09.669Z,80.70
2017-11-23T08:09:09.664Z,80.80
2017-11-23T08:10:09.658Z,80.70
2017-11-23T08:11:09.653Z,80.51
2017-11-23T08:12:09.645Z,80.70
2017-11-23T08:13:09.640Z,80.70
2017-11-23T08:14:09.635Z,80.80
2017-11-23T08:15:09.632Z,80.22
2017-11-23T08:16:09.625Z,80.61
2017-11-23T08:17:09.620Z,79.79
2017-11-23T08:18:09.617Z,79.69
2017-11-23T08:19:09.612Z,79.69
2017-11-23T08:20:09.610Z,79.69
2017-11-23T08:21:09.606Z,79.50
2017-11-23T08:22:09.606Z,79.25
2017-11-23T08:23:09.599Z,78.49
2017-11-23T08:24:09.594Z,78.30
2017-11-23T08:25:09.590Z,78.20
2017-11-23T08:26:09.586Z,78.26
2017-11-23T08:27:09.583Z,78.64
2017-11-23T08:28:09.574Z,78.45
2017-11-23T08:29:09.570Z,78.93
2017-11-23T08:30:09.569Z,78.64
2017-11-23T08:31:09.563Z,78.93
2017-11-23T08:32:09.560Z,79.02
2017-11-23T08:33:09.556Z,78.93
2017-11-23T08:34:09.552Z,79.02
2017-11-23T08:35:09.551Z,78.93
2017-11-23T08:36:09.549Z,79.69
2017-11-23T08:37:09.547Z,79.60
2017-11-23T08:38:09.542Z,79.41
2017-11-23T08:39:09.539Z,79.31
2017-11-23T08:40:09.535Z,79.22
2017-11-23T08:41:09.531Z,79.31
2017-11-23T08:42:09.529Z,79.98
2017-11-23T08:43:09.530Z,79.79
2017-11-23T08:44:09.517Z,79.88
2017-11-23T08:45:09.514Z,79.50
2017-11-23T08:46:09.514Z,79.88
2017-11-23T08:47:09.501Z,79.50
2017-11-23T08:48:09.496Z,79.69
2017-11-23T08:49:09.494Z,79.69
2017-11-23T08:50:09.488Z,79.98
2017-11-23T08:51:09.484Z,79.31
2017-11-23T08:52:09.479Z,79.41
2017-11-23T08:53:09.477Z,79.79
2017-11-23T08:54:09.474Z,79.94
2017-11-23T08:55:09.468Z,79.31
2017-11-23T08:56:09.489Z,79.69
2017-11-23T08:57:09.459Z,79.88
2017-11-23T08:58:09.457Z,79.69
2017-11-23T08:59:09.454Z,79.79
2017-11-23T09:00:09.445Z,79.60
2017-11-23T09:01:09.444Z,79.60
2017-11-23T09:02:09.439Z,79.60
2017-11-23T09:03:09.437Z,79.79
2017-11-23T09:04:09.430Z,79.69
2017-11-23T09:05:09.427Z,79.79
2017-11-23T09:06:09.423Z,79.60
2017-11-23T09:07:09.419Z,79.88
2017-11-23T09:08:09.414Z,79.79
2017-11-23T09:09:09.416Z,79.98
2017-11-23T09:10:09.408Z,79.60
2017-11-23T09:11:09.410Z,80.46
2017-11-23T09:12:09.397Z,79.60
2017-11-23T09:13:09.394Z,79.88
2017-11-23T09:14:09.388Z,79.88
2017-11-23T09:15:09.387Z,79.60
2017-11-23T09:16:09.385Z,79.88
2017-11-23T09:17:09.379Z,79.60
2017-11-23T09:18:09.383Z,79.60
2017-11-23T09:19:09.385Z,79.83
2017-11-23T09:20:09.375Z,79.73
2017-11-23T09:21:09.370Z,79.93
2017-11-23T09:22:09.368Z,79.73
2017-11-23T09:23:09.362Z,79.73
2017-11-23T09:24:09.354Z,80.02
2017-11-23T09:25:09.350Z,79.83
2017-11-23T09:26:09.348Z,79.54
2017-11-23T09:27:09.342Z,79.64
2017-11-23T09:28:09.347Z,79.35
2017-11-23T09:29:09.337Z,78.97
2017-11-23T09:30:09.332Z,78.87
2017-11-23T09:31:09.328Z,79.20
2017-11-23T09:32:09.328Z,78.63
2017-11-23T09:33:09.324Z,78.81
2017-11-23T09:34:09.319Z,78.63
2017-11-23T09:35:09.317Z,78.43
2017-11-23T09:36:09.313Z,78.34
2017-11-23T09:37:09.309Z,78.53
2017-11-23T09:38:09.306Z,78.53
2017-11-23T09:39:09.300Z,78.14
2017-11-23T09:40:09.293Z,78.14
2017-11-23T09:41:09.292Z,78.14
2017-11-23T09:42:09.287Z,78.19
2017-11-23T09:43:09.283Z,77.80
2017-11-23T09:44:09.296Z,77.99
2017-11-23T09:45:09.277Z,77.61
2017-11-23T09:46:09.272Z,77.51
2017-11-23T09:47:09.270Z,77.61
2017-11-23T09:48:09.270Z,77.42
2017-11-23T09:49:09.265Z,77.23
2017-11-23T09:50:09.263Z,76.98
2017-11-23T09:51:09.259Z,76.40
2017-11-23T09:52:09.256Z,76.40
2017-11-23T09:53:09.253Z,76.79
2017-11-23T09:54:09.250Z,76.60
2017-11-23T09:55:09.248Z,76.60
2017-11-23T09:56:09.239Z,75.93
2017-11-23T09:57:09.236Z,75.54
2017-11-23T09:58:09.232Z,75.73
2017-11-23T09:59:09.229Z,75.64
2017-11-23T10:00:09.225Z,75.16
2017-11-23T10:01:09.224Z,74.87
2017-11-23T10:02:09.221Z,75.16
2017-11-23T10:03:09.220Z,75.45
2017-11-23T10:04:09.217Z,75.29
2017-11-23T10:05:09.215Z,75.20
2017-11-23T10:06:09.214Z,75.07
2017-11-23T10:07:09.212Z,75.07
2017-11-23T10:08:09.211Z,74.87
2017-11-23T10:09:09.204Z,75.29
2017-11-23T10:10:09.208Z,75.35
2017-11-23T10:11:09.200Z,74.87
2017-11-23T10:12:09.190Z,75.07
2017-11-23T10:13:09.190Z,74.97
2017-11-23T10:14:09.186Z,75.07
2017-11-23T10:15:09.193Z,74.87
2017-11-23T10:16:09.185Z,75.54
2017-11-23T10:17:09.179Z,74.77
2017-11-23T10:18:09.175Z,75.26
2017-11-23T10:19:09.172Z,75.07
2017-11-23T10:20:09.181Z,75.16
2017-11-23T10:21:09.179Z,75.16
2017-11-23T10:22:09.169Z,75.20
2017-11-23T10:23:09.167Z,75.16
2017-11-23T10:24:09.164Z,74.97
2017-11-23T10:25:09.161Z,74.87
2017-11-23T10:26:09.159Z,75.07
2017-11-23T10:27:09.155Z,75.16
2017-11-23T10:28:09.148Z,75.26
2017-11-23T10:29:09.147Z,75.07
2017-11-23T10:30:09.144Z,75.20
2017-11-23T10:31:09.142Z,75.45
2017-11-23T10:32:09.137Z,75.07
2017-11-23T10:33:09.135Z,75.64
2017-11-23T10:34:09.132Z,75.83
2017-11-23T10:35:09.131Z,75.45
2017-11-23T10:36:09.130Z,75.54
2017-11-23T10:37:09.128Z,75.64
2017-11-23T10:38:09.125Z,75.83
2017-11-23T10:39:09.124Z,74.97
2017-11-23T10:40:09.119Z,74.91
2017-11-23T10:41:09.118Z,75.87
2017-11-23T10:42:09.117Z,75.10
2017-11-23T10:43:09.117Z,75.29
2017-11-23T10:44:09.109Z,75.20
2017-11-23T10:45:09.104Z,75.48
2017-11-23T10:46:09.103Z,75.01
2017-11-23T10:47:09.100Z,75.29
2017-11-23T10:48:09.095Z,75.29
2017-11-23T10:49:09.093Z,75.48
2017-11-23T10:50:09.092Z,75.39
2017-11-23T10:51:09.090Z,75.20
2017-11-23T10:52:09.089Z,75.68
2017-11-23T10:53:09.091Z,75.29
2017-11-23T10:54:09.087Z,75.39
2017-11-23T10:55:09.084Z,75.77
2017-11-23T10:56:09.081Z,75.58
2017-11-23T10:57:09.078Z,76.06
2017-11-23T10:58:09.074Z,76.35
2017-11-23T10:59:09.072Z,76.25
2017-11-23T11:00:09.065Z,76.25
2017-11-23T11:01:09.062Z,76.54
2017-11-23T11:02:09.061Z,76.92
2017-11-23T11:03:09.058Z,77.11
2017-11-23T11:04:09.055Z,77.40
2017-11-23T11:05:09.053Z,77.11
2017-11-23T11:06:09.051Z,77.69
2017-11-23T11:07:09.048Z,77.59
2017-11-23T11:08:09.050Z,77.78
2017-11-23T11:09:09.053Z,77.88
2017-11-23T11:10:09.053Z,78.45
2017-11-23T11:11:09.046Z,78.45
2017-11-23T11:12:09.040Z,78.55
2017-11-23T11:13:09.037Z,79.03
2017-11-23T11:14:09.036Z,78.55
2017-11-23T11:15:09.033Z,78.45
2017-11-23T11:16:09.027Z,78.55
2017-11-23T11:17:09.026Z,78.64
2017-11-23T11:18:09.022Z,79.03
2017-11-23T11:19:09.019Z,78.93
2017-11-23T11:20:09.022Z,78.78
2017-11-23T11:21:09.020Z,78.93
2017-11-23T11:22:09.017Z,78.78
2017-11-23T11:23:09.016Z,78.78
2017-11-23T11:24:09.008Z,79.07
2017-11-23T11:25:09.007Z,78.97
2017-11-23T11:26:09.006Z,79.36
2017-11-23T11:27:09.004Z,78.97
2017-11-23T11:28:09.002Z,79.64
2017-11-23T11:29:09.007Z,79.36
2017-11-23T11:30:08.998Z,79.51
2017-11-23T11:31:08.996Z,79.70
2017-11-23T11:32:08.996Z,79.80
2017-11-23T11:33:08.996Z,79.70
2017-11-23T11:34:08.993Z,79.99
2017-11-23T11:35:08.994Z,80.27
2017-11-23T11:36:08.991Z,80.37
2017-11-23T11:37:08.987Z,80.37
2017-11-23T11:38:08.987Z,80.85
2017-11-23T11:39:08.985Z,80.85
2017-11-23T11:40:08.979Z,80.47
2017-11-23T11:41:08.976Z,80.37
2017-11-23T11:42:08.975Z,80.37
2017-11-23T11:43:08.973Z,81.13
2017-11-23T11:44:08.974Z,81.04
2017-11-23T11:45:08.969Z,81.13
2017-11-23T11:46:08.967Z,80.76
2017-11-23T11:47:08.968Z,81.04
2017-11-23T11:48:08.971Z,80.99
2017-11-23T11:49:08.976Z,81.37
2017-11-23T11:50:08.965Z,81.33
2017-11-23T11:51:08.962Z,81.33
2017-11-23T11:52:08.960Z,81.46
2017-11-23T11:53:08.958Z,81.23
2017-11-23T11:54:08.957Z,81.43
2017-11-23T11:55:08.957Z,81.13
2017-11-23T11:56:08.949Z,81.04
2017-11-23T11:57:08.946Z,80.94
2017-11-23T11:58:08.945Z,81.43
2017-11-23T11:59:08.944Z,82.00
2017-11-23T12:00:08.940Z,81.81
2017-11-23T12:01:08.940Z,82.00
2017-11-23T12:02:08.938Z,81.90
2017-11-23T12:03:08.939Z,81.90
2017-11-23T12:04:08.943Z,82.00
2017-11-23T12:05:08.937Z,82.67
2017-11-23T12:06:08.934Z,82.57
2017-11-23T12:07:08.936Z,82.76
2017-11-23T12:08:08.933Z,82.96
2017-11-23T12:09:08.933Z,82.76
2017-11-23T12:10:08.928Z,82.96
2017-11-23T12:11:08.924Z,82.76
2017-11-23T12:12:08.916Z,82.67
2017-11-23T12:13:08.921Z,83.05
2017-11-23T12:14:08.913Z,82.96
2017-11-23T12:15:08.912Z,83.25
2017-11-23T12:16:08.909Z,83.25
2017-11-23T12:17:08.907Z,83.11
2017-11-23T12:18:08.905Z,83.05
2017-11-23T12:19:08.903Z,83.63
2017-11-23T12:20:08.909Z,83.15
2017-11-23T12:21:08.904Z,83.05
2017-11-23T12:22:08.899Z,83.05
2017-11-23T12:23:08.898Z,82.67
2017-11-23T12:24:08.891Z,83.05
2017-11-23T12:25:08.890Z,82.67
2017-11-23T12:26:08.892Z,82.76
2017-11-23T12:27:08.884Z,82.29
2017-11-23T12:28:08.887Z,82.67
2017-11-23T12:29:08.884Z,82.67
2017-11-23T12:30:08.883Z,82.76
2017-11-23T12:31:08.880Z,82.57
2017-11-23T12:32:08.878Z,82.48
2017-11-23T12:33:08.879Z,82.76
2017-11-23T12:34:08.877Z,82.32
2017-11-23T12:35:08.872Z,82.23
2017-11-23T12:36:08.868Z,82.52
2017-11-23T12:37:08.862Z,82.52
2017-11-23T12:38:08.861Z,82.04
2017-11-23T12:39:08.860Z,82.04
2017-11-23T12:40:08.857Z,82.23
2017-11-23T12:41:08.854Z,82.14
2017-11-23T12:42:08.855Z,80.99
2017-11-23T12:43:08.852Z,81.27
2017-11-23T12:44:08.854Z,81.56
2017-11-23T12:45:08.852Z,82.19
2017-11-23T12:46:08.850Z,81.95
2017-11-23T12:47:08.855Z,82.23
2017-11-23T12:48:08.847Z,82.04
2017-11-23T12:49:08.845Z,82.04
2017-11-23T12:50:08.843Z,82.04
2017-11-23T12:51:08.847Z,82.23
2017-11-23T12:52:08.836Z,81.75